Airfield :
LOGIN :

Register | Disclaimer

   EN    FR    IT 

 










Legend :    VFR   Marginal VFR   IFR   Intensive IFR   Very Intensive IFR
Visi :
Ceiling :
>= 8 km
>= 3000ft
5 to 8 km
1000 to 3000 ft
1500m to 5 km
500 to 1000 ft
800 to 1500m
200 to 500 ft
< 800m
< 200 ft
Symbols :   Thunderstorms  Fog  Heavy snow  Heavy precipitations  Wind > 20 kt
SIGMETs :     Misc.  Thunderstorms  Icing  Turbulence  Mountain Waves  Volcanic Ashes







- Airport Elevation : 121 ft
- IATA code : HUY
- Download approach charts


EGNJ - Humberside

CURRENT METAR :
  • 191620Z 26006KT 230V290 9999 FEW035 17/07 Q1019

EXPIRED METARs :
  • 191550Z 24007KT 9999 SCT035 17/08 Q1020
  • 191450Z 27007KT 9999 BKN035 16/08 Q1020
  • 191420Z 24010KT 9999 BKN030 17/08 Q1020
  • 191350Z 26005KT 200V300 9999 SCT025 16/08 Q1020

TAF TAF EGNJ
Valid from the 19 at 15:00 until the 20 at 00:00 UTC


191358Z 1915/1924 24006KT 9999 FEW030
ATIS : +44 1652 682 020
No reported NOTAMs for that airfield.



MET'MAP, your aeronautical weather chart ! - Copyright ORBIFLY December 2007 - Disclaimer

ORBIFLY MET'MAP TEAM :

Programming & Development : Alexandra Zaïnal
Concept & Development : Baudouin d'Aumeries
Co-Development & Prog : Marc-Olivier Méhu
Technical & hardware support : Manuel Goepfert

Contact : metmap@orbifly.com




SOURCES & CREDITS :

   NOAA